Time;durP1;ratioP1;P1;durP2;ratioP2;P2;SDS_P1;SDS_P2;PMS_P1;PMS_P2;Temp;Humidity;BMP_temperature;BMP_pressure;BME280_temperature;BME280_humidity;BME280_pressure;Samples;Min_cycle;Max_cycle;Signal;HPM_P1;HPM_P2
2021/07/19 00:01:52;;;;;;;13.23;11.07;;;18.70;78.30;;;17.55;75.64;96258.22;4935060;28;20039;-71
2021/07/19 00:04:18;;;;;;;15.02;11.48;;;18.60;78.40;;;17.53;76.23;96254.97;4935765;28;20585;-70
2021/07/19 00:06:43;;;;;;;15.82;11.55;;;18.60;78.60;;;17.51;75.69;96253.59;4934011;28;20499;-70
2021/07/19 00:09:09;;;;;;;17.25;12.10;;;18.60;78.50;;;17.50;76.07;96262.59;4967082;28;20763;-71
2021/07/19 00:11:37;;;;;;;14.05;11.70;;;18.60;78.50;;;17.49;76.88;96266.28;4940554;28;20089;-71
2021/07/19 00:14:03;;;;;;;17.75;11.68;;;18.60;78.50;;;17.45;75.88;96268.59;4935523;28;20062;-71
2021/07/19 00:16:29;;;;;;;15.50;12.13;;;18.60;78.50;;;17.43;76.78;96254.72;4937014;28;20039;-72
2021/07/19 00:18:55;;;;;;;13.95;10.68;;;18.60;78.40;;;17.40;76.26;96257.81;4935948;28;20521;-72
2021/07/19 00:21:20;;;;;;;14.48;11.52;;;18.60;78.40;;;17.40;76.81;96257.81;4935014;28;20027;-71
2021/07/19 00:23:46;;;;;;;13.25;10.95;;;18.60;78.40;;;17.39;76.31;96266.84;4979217;28;20928;-71
2021/07/19 00:26:12;;;;;;;15.05;11.23;;;18.60;78.40;;;17.35;76.37;96263.00;4953134;28;20439;-71
2021/07/19 00:28:38;;;;;;;14.85;11.43;;;18.50;78.30;;;17.32;76.30;96264.28;4938864;28;20106;-70
2021/07/19 00:31:03;;;;;;;15.57;11.90;;;18.50;78.30;;;17.30;76.78;96258.38;4953996;28;20031;-71
2021/07/19 00:33:29;;;;;;;15.82;11.57;;;18.50;78.20;;;17.29;76.39;96261.28;4972602;28;20039;-70
2021/07/19 00:35:55;;;;;;;18.80;10.90;;;18.40;78.30;;;17.28;76.66;96262.31;4957432;28;20030;-70
2021/07/19 00:38:20;;;;;;;15.82;11.60;;;18.50;78.40;;;17.25;76.98;96260.91;4917415;28;20410;-71
2021/07/19 00:40:46;;;;;;;16.27;12.10;;;18.40;78.30;;;17.24;76.78;96256.63;4944860;28;20034;-70
2021/07/19 00:43:12;;;;;;;13.25;11.38;;;18.30;78.50;;;17.23;76.69;96262.19;4946481;28;20464;-70
2021/07/19 00:45:38;;;;;;;15.00;11.65;;;18.40;78.50;;;17.21;77.15;96266.91;4960880;28;20145;-71
2021/07/19 00:48:05;;;;;;;14.27;11.45;;;18.40;78.50;;;17.18;76.86;96264.69;4938488;28;20066;-70
2021/07/19 00:50:35;;;;;;;14.07;11.10;;;18.30;78.60;;;17.16;77.64;96256.94;4939632;28;20031;-71
2021/07/19 00:53:02;;;;;;;17.73;12.23;;;18.30;78.80;;;17.13;76.91;96263.53;4958156;28;20038;-71
2021/07/19 00:55:34;;;;;;;15.15;12.07;;;18.20;78.70;;;17.09;77.21;96256.22;4952754;28;20050;-71
2021/07/19 00:58:02;;;;;;;17.58;11.50;;;18.20;78.80;;;17.07;76.58;96264.44;4951706;28;20039;-71
2021/07/19 01:00:28;;;;;;;17.38;12.38;;;18.20;78.90;;;17.04;76.85;96259.56;4938179;28;20031;-70
2021/07/19 01:02:54;;;;;;;15.13;10.73;;;18.10;79.00;;;17.01;76.77;96254.72;4954798;28;20567;-72
2021/07/19 01:05:19;;;;;;;16.80;11.75;;;18.10;79.10;;;16.99;77.17;96263.94;4947262;28;20065;-71
2021/07/19 01:07:46;;;;;;;14.40;10.90;;;18.10;79.10;;;16.96;76.85;96261.72;4944838;28;20085;-70
2021/07/19 01:10:17;;;;;;;14.50;11.55;;;18.10;79.20;;;16.94;77.43;96261.94;4933681;28;20042;-72
2021/07/19 01:12:55;;;;;;;14.73;10.70;;;18.10;79.20;;;16.89;78.41;96256.50;4964882;28;20121;-71
2021/07/19 01:15:23;;;;;;;17.05;10.57;;;18.10;79.10;;;16.86;77.59;96261.44;4938037;29;20032;-72
2021/07/19 01:17:49;;;;;;;17.17;11.50;;;18.00;79.20;;;16.81;77.87;96267.44;4959396;28;20533;-71
2021/07/19 01:20:15;;;;;;;15.60;11.45;;;17.90;79.30;;;16.78;77.50;96265.25;4948777;28;20066;-70
2021/07/19 01:23:43;;;;;;;15.85;11.20;;;17.90;79.40;;;16.76;79.08;96269.97;4946475;28;20062;-70
2021/07/19 01:26:26;;;;;;;16.60;11.40;;;18.00;79.40;;;16.74;78.70;96258.72;4942387;28;20053;-70
2021/07/19 01:28:53;;;;;;;14.45;10.77;;;17.90;79.60;;;16.71;78.01;96260.00;4957627;28;20522;-70
2021/07/19 01:31:32;;;;;;;13.65;10.88;;;18.00;79.70;;;16.71;79.44;96259.19;4936810;28;20503;-70
2021/07/19 01:34:20;;;;;;;16.00;11.52;;;17.90;79.70;;;16.71;79.15;96269.81;4924504;28;20450;-70
2021/07/19 01:36:53;;;;;;;12.63;10.80;;;17.90;79.80;;;16.66;78.83;96264.31;4939448;28;20532;-70
2021/07/19 01:39:18;;;;;;;17.45;11.15;;;17.80;79.80;;;16.64;78.63;96269.03;4935829;28;20033;-70
2021/07/19 01:41:44;;;;;;;14.63;11.05;;;17.90;79.80;;;16.59;78.68;96258.28;4937439;28;20039;-70
2021/07/19 01:44:10;;;;;;;16.52;11.55;;;17.80;79.80;;;16.64;78.62;96263.75;4951520;28;20048;-68
2021/07/19 01:46:36;;;;;;;12.43;10.15;;;17.80;79.80;;;16.61;78.27;96261.53;4934352;28;20043;-70
2021/07/19 01:49:01;;;;;;;13.95;10.30;;;17.80;79.80;;;16.60;78.37;96267.88;4929599;28;20049;-69
2021/07/19 01:51:27;;;;;;;13.30;10.65;;;17.80;79.80;;;16.61;78.46;96269.50;4935578;28;20066;-70
2021/07/19 01:53:54;;;;;;;11.90;10.38;;;17.80;79.90;;;16.60;78.43;96262.56;4934822;28;20039;-69
2021/07/19 01:56:20;;;;;;;12.93;10.43;;;17.80;80.00;;;16.61;78.58;96265.00;4957448;28;20057;-69
2021/07/19 01:58:46;;;;;;;14.10;10.52;;;17.80;80.10;;;16.62;78.86;96255.19;4939590;28;20517;-69
2021/07/19 02:01:12;;;;;;;13.35;11.13;;;17.90;80.20;;;16.68;78.98;96264.94;4952363;28;20122;-69
2021/07/19 02:03:38;;;;;;;12.68;10.55;;;17.90;80.30;;;16.66;78.98;96262.50;4951878;28;20030;-71
2021/07/19 02:06:05;;;;;;;15.45;11.38;;;17.90;80.20;;;16.66;78.85;96256.34;4952676;28;20041;-69
2021/07/19 02:08:32;;;;;;;15.93;11.40;;;17.90;80.10;;;16.65;79.05;96255.53;4932308;28;20042;-69
2021/07/19 02:10:57;;;;;;;13.88;11.07;;;17.90;80.30;;;16.64;79.01;96259.22;4935749;28;20045;-69
2021/07/19 02:13:25;;;;;;;14.32;11.30;;;18.00;80.30;;;16.65;78.99;96252.88;4939720;28;20403;-69
2021/07/19 02:15:52;;;;;;;14.20;11.75;;;17.90;80.40;;;16.64;79.71;96248.59;4937932;28;20023;-70
2021/07/19 02:18:19;;;;;;;13.48;11.18;;;17.90;80.30;;;16.65;79.09;96244.91;4933282;28;20022;-69
2021/07/19 02:20:45;;;;;;;16.08;11.43;;;17.90;80.30;;;16.69;79.36;96246.13;4940544;28;20070;-69
2021/07/19 02:23:11;;;;;;;13.65;10.70;;;18.00;80.40;;;16.71;78.78;96248.56;4935043;28;20515;-69
2021/07/19 02:25:37;;;;;;;15.70;11.10;;;18.00;80.40;;;16.71;79.44;96257.34;4937437;28;20043;-68
2021/07/19 02:28:03;;;;;;;13.93;10.75;;;18.00;80.40;;;16.69;79.41;96250.63;4941293;28;20041;-70
2021/07/19 02:30:29;;;;;;;17.65;10.85;;;17.90;80.70;;;16.66;79.41;96251.03;4936304;28;20038;-70
2021/07/19 02:32:56;;;;;;;14.30;10.93;;;17.90;80.50;;;16.65;79.61;96249.41;4923746;28;20406;-70
2021/07/19 02:35:24;;;;;;;12.15;9.88;;;17.90;80.40;;;16.63;79.04;96251.50;4937298;28;20031;-69
2021/07/19 02:37:52;;;;;;;12.38;10.15;;;17.80;80.20;;;16.59;78.75;96247.66;4944528;28;20118;-69
2021/07/19 02:40:19;;;;;;;12.68;10.40;;;17.80;80.40;;;16.58;78.99;96254.00;4942308;28;20052;-69
2021/07/19 02:43:02;;;;;;;14.93;10.00;;;17.70;80.40;;;16.57;79.97;96249.72;4937369;28;20050;-71
2021/07/19 02:45:28;;;;;;;14.70;10.35;;;17.70;80.40;;;16.52;78.92;96251.22;4939160;28;20490;-69
2021/07/19 02:47:54;;;;;;;12.73;9.60;;;17.70;80.40;;;16.50;78.89;96244.47;4943203;28;20042;-69
2021/07/19 02:50:24;;;;;;;13.35;9.68;;;17.60;80.10;;;16.48;79.93;96252.66;4933470;28;20511;-69
2021/07/19 02:52:51;;;;;;;;;;;17.60;80.30;;;16.45;79.95;96249.66;4943743;28;20031;-69
2021/07/19 02:55:17;;;;;;;13.32;10.38;;;17.60;80.40;;;16.42;79.59;96250.91;4944901;28;19979;-68
2021/07/19 02:57:43;;;;;;;13.57;10.40;;;17.70;80.40;;;16.40;78.74;96246.84;4960290;28;20403;-69
2021/07/19 03:00:14;;;;;;;13.75;10.40;;;17.60;80.30;;;16.40;79.56;96252.97;4937736;28;20042;-68
2021/07/19 03:02:43;;;;;;;12.10;10.07;;;17.60;80.30;;;16.39;79.75;96261.97;4950389;28;20097;-69
2021/07/19 03:05:10;;;;;;;12.98;10.65;;;17.60;80.50;;;16.37;79.76;96252.63;4960893;28;20063;-69
2021/07/19 03:07:36;;;;;;;12.10;9.95;;;17.50;80.50;;;16.29;78.74;96251.03;4940062;28;20061;-69
2021/07/19 03:10:02;;;;;;;13.50;10.00;;;17.50;80.30;;;16.26;79.81;96250.69;4936287;28;20042;-69
2021/07/19 03:12:28;;;;;;;13.88;9.95;;;17.50;80.60;;;16.22;80.00;96245.00;4938589;28;20083;-69
2021/07/19 03:14:54;;;;;;;14.40;11.13;;;17.50;80.70;;;16.23;79.30;96257.25;4943041;28;20073;-70
2021/07/19 03:17:20;;;;;;;14.48;10.48;;;17.40;80.70;;;16.21;79.26;96254.00;4936173;28;20050;-70
2021/07/19 03:19:51;;;;;;;12.88;10.07;;;17.40;81.00;;;16.20;79.93;96257.69;4935760;28;20042;-70
2021/07/19 03:22:16;;;;;;;16.17;11.10;;;17.40;81.10;;;16.16;79.55;96256.50;4933849;28;20038;-70
2021/07/19 03:24:44;;;;;;;14.60;11.15;;;17.40;81.00;;;16.15;79.52;96253.03;4934954;28;20142;-68
2021/07/19 03:27:10;;;;;;;13.38;10.45;;;17.40;81.00;;;16.11;80.52;96253.72;4943763;28;20054;-73
2021/07/19 03:29:35;;;;;;;14.75;11.40;;;17.30;81.20;;;16.10;80.06;96241.47;4937554;28;20030;-72
2021/07/19 03:32:03;;;;;;;12.73;10.25;;;17.30;81.50;;;16.09;80.70;96245.16;4933791;28;20034;-72
2021/07/19 03:34:29;;;;;;;13.20;10.32;;;17.30;81.60;;;16.10;79.96;96252.91;4934172;28;20442;-73
2021/07/19 03:36:55;;;;;;;12.75;10.50;;;17.30;81.50;;;16.10;80.35;96246.78;4920313;28;20042;-68
2021/07/19 03:39:20;;;;;;;17.52;11.10;;;17.30;81.50;;;16.11;80.35;96248.41;4927368;28;20046;-71
2021/07/19 03:41:49;;;;;;;11.65;9.77;;;17.30;81.40;;;16.12;80.23;96244.72;4926002;28;20030;-71
2021/07/19 03:44:15;;;;;;;15.80;11.30;;;17.40;81.40;;;16.09;80.67;96248.63;4964121;28;20037;-70
2021/07/19 03:46:41;;;;;;;14.15;10.90;;;17.30;81.30;;;16.10;79.68;96252.09;4924487;28;20035;-70
2021/07/19 03:49:07;;;;;;;15.60;11.00;;;17.30;81.40;;;16.10;80.13;96257.41;4933368;28;20046;-70
2021/07/19 03:51:33;;;;;;;13.65;10.02;;;17.40;81.30;;;16.11;80.65;96259.00;4929215;28;20031;-72
2021/07/19 03:53:59;;;;;;;15.45;10.75;;;17.40;81.30;;;16.09;80.84;96261.88;4936324;28;20042;-70
2021/07/19 03:56:28;;;;;;;13.57;10.32;;;17.40;81.30;;;16.11;80.39;96261.66;4969483;28;20038;-70
2021/07/19 03:58:57;;;;;;;17.15;11.25;;;17.40;81.10;;;16.12;80.58;96265.94;4935368;28;20050;-71
2021/07/19 04:01:23;;;;;;;17.52;11.02;;;17.40;81.00;;;16.12;80.85;96265.94;4939942;28;20125;-70
2021/07/19 04:03:52;;;;;;;14.45;11.15;;;17.40;81.10;;;16.12;80.92;96265.94;4947816;28;20135;-70
2021/07/19 04:06:19;;;;;;;14.07;10.63;;;17.40;81.10;;;16.14;80.38;96263.88;4930340;28;20110;-71
2021/07/19 04:08:45;;;;;;;14.23;10.57;;;17.40;81.10;;;16.14;80.52;96266.53;4932969;28;20077;-71
2021/07/19 04:11:16;;;;;;;14.32;10.65;;;17.50;81.10;;;16.17;81.41;96264.25;4917715;28;20427;-71
2021/07/19 04:13:43;;;;;;;14.18;10.48;;;17.50;81.00;;;16.18;80.27;96265.88;4931965;28;20045;-70
2021/07/19 04:16:13;;;;;;;15.23;10.38;;;17.60;80.90;;;16.20;80.35;96260.34;4922900;29;20031;-71
2021/07/19 04:18:38;;;;;;;12.90;10.17;;;17.60;81.00;;;16.21;80.41;96259.31;4928189;28;20031;-71
2021/07/19 04:21:04;;;;;;;13.82;9.65;;;17.60;80.90;;;16.26;80.93;96262.09;4934663;28;20035;-71
2021/07/19 04:23:31;;;;;;;11.32;9.18;;;17.60;80.80;;;16.29;81.00;96260.84;4925776;28;20061;-71
2021/07/19 04:25:57;;;;;;;12.73;9.77;;;17.70;80.70;;;16.32;80.81;96268.41;4925436;28;20140;-72
2021/07/19 04:28:23;;;;;;;14.18;10.55;;;17.70;80.90;;;16.32;80.51;96266.56;4924059;28;20247;-71
2021/07/19 04:30:51;;;;;;;14.18;10.27;;;17.70;80.80;;;16.34;80.45;96275.09;4932971;29;20121;-70
2021/07/19 04:33:20;;;;;;;12.05;9.68;;;17.70;80.70;;;16.36;80.80;96273.03;4963210;28;20550;-71
2021/07/19 04:35:47;;;;;;;13.50;9.88;;;17.70;80.50;;;16.37;80.68;96274.66;4949247;28;20043;-71
2021/07/19 04:38:17;;;;;;;16.88;9.45;;;17.70;80.20;;;16.40;80.95;96276.88;4922894;28;20039;-71
2021/07/19 04:40:55;;;;;;;13.77;9.48;;;17.80;80.10;;;16.40;80.41;96268.91;4934967;28;20046;-71
2021/07/19 04:43:21;;;;;;;12.43;9.32;;;17.80;80.10;;;16.41;80.00;96259.91;4908978;29;20130;-73
2021/07/19 04:45:47;;;;;;;12.88;9.40;;;17.90;80.00;;;16.48;80.43;96265.13;4926481;28;20043;-72
2021/07/19 04:48:13;;;;;;;12.88;9.45;;;17.90;79.70;;;16.51;79.98;96265.50;4925562;28;20114;-71
2021/07/19 04:50:39;;;;;;;13.68;9.63;;;18.00;79.60;;;16.55;79.57;96263.25;4949934;28;20043;-72
2021/07/19 04:53:05;;;;;;;12.63;9.20;;;18.00;79.50;;;16.59;80.31;96271.56;4917032;28;20098;-70
2021/07/19 04:55:31;;;;;;;11.68;9.20;;;18.10;79.60;;;16.63;79.94;96272.75;4930463;29;20050;-72
2021/07/19 04:57:57;;;;;;;15.85;9.40;;;18.10;79.70;;;16.66;80.41;96266.97;4934674;28;20054;-72
2021/07/19 05:00:23;;;;;;;12.98;9.55;;;18.10;79.70;;;16.69;79.95;96264.72;4925143;28;20055;-71
2021/07/19 05:02:49;;;;;;;13.25;9.45;;;18.20;79.80;;;16.71;80.68;96269.81;4924042;28;20089;-71
2021/07/19 05:05:18;;;;;;;10.85;8.80;;;18.20;79.90;;;16.76;80.33;96267.31;4932363;28;20137;-70
2021/07/19 05:07:44;;;;;;;12.68;9.18;;;18.20;79.90;;;16.78;80.38;96267.91;4952766;28;20062;-72
2021/07/19 05:10:19;;;;;;;16.55;10.07;;;18.20;79.80;;;16.82;80.53;96271.72;4945076;28;20035;-73
2021/07/19 05:12:46;;;;;;;12.05;9.07;;;18.20;79.70;;;16.83;80.21;96268.84;4931763;28;20503;-72
2021/07/19 05:15:12;;;;;;;12.52;9.05;;;18.30;79.50;;;16.87;79.58;96269.19;4932084;28;20035;-67
2021/07/19 05:17:41;;;;;;;14.18;9.77;;;18.30;79.50;;;16.91;80.17;96274.88;4946775;28;20038;-70
2021/07/19 05:20:18;;;;;;;12.38;9.13;;;18.40;79.40;;;16.95;80.34;96266.22;4952813;28;20443;-69
2021/07/19 05:22:48;;;;;;;12.27;8.60;;;18.50;79.10;;;16.99;80.46;96274.59;4955423;28;20109;-70
2021/07/19 05:25:15;;;;;;;14.53;9.77;;;18.60;79.40;;;17.03;80.01;96268.59;4947609;28;20035;-69
2021/07/19 05:28:07;;;;;;;16.80;9.40;;;18.60;79.60;;;17.11;81.27;96276.22;4970183;28;20342;-69
2021/07/19 05:30:39;;;;;;;13.90;8.57;;;18.70;79.80;;;17.19;81.07;96266.31;4970989;28;20039;-70
2021/07/19 05:33:05;;;;;;;11.60;8.95;;;18.80;79.60;;;17.27;80.26;96263.34;4948285;28;20035;-70
2021/07/19 05:35:31;;;;;;;13.90;8.63;;;18.90;79.30;;;17.33;80.84;96257.94;4949121;28;20042;-69
2021/07/19 05:37:56;;;;;;;10.00;7.95;;;19.00;79.00;;;17.44;79.76;96259.81;4959596;28;20530;-72
2021/07/19 05:40:22;;;;;;;12.00;8.70;;;19.10;78.80;;;17.54;80.36;96261.91;4938360;28;20030;-69
2021/07/19 05:42:48;;;;;;;10.98;8.27;;;19.20;78.80;;;17.64;80.61;96261.34;4960096;28;20436;-67
2021/07/19 05:45:15;;;;;;;13.27;10.30;;;19.40;78.60;;;17.75;80.97;96264.06;4968873;28;20063;-71
2021/07/19 05:47:40;;;;;;;16.90;13.10;;;19.50;78.60;;;17.87;80.54;96257.91;4939434;28;20049;-71
2021/07/19 05:50:07;;;;;;;12.70;9.75;;;19.70;78.10;;;18.00;80.64;96257.72;4954199;28;20506;-72
2021/07/19 05:52:33;;;;;;;10.82;8.32;;;19.80;77.60;;;18.13;79.06;96252.16;4955059;28;20042;-71
2021/07/19 05:55:00;;;;;;;10.35;8.15;;;20.00;76.50;;;18.25;79.07;96252.94;4968631;28;20031;-73
2021/07/19 05:57:27;;;;;;;8.48;7.13;;;20.10;75.40;;;18.38;78.79;96248.44;4935339;29;20039;-70
2021/07/19 05:59:56;;;;;;;12.75;7.85;;;20.40;74.70;;;18.48;78.77;96249.44;4952448;28;20086;-73
2021/07/19 06:02:26;;;;;;;11.60;8.10;;;20.60;73.70;;;18.61;78.09;96248.38;4939918;28;20122;-73
2021/07/19 06:04:52;;;;;;;11.40;8.05;;;20.70;73.60;;;18.71;78.39;96243.28;4937507;28;20039;-69
2021/07/19 06:07:18;;;;;;;11.63;7.43;;;20.90;73.10;;;18.86;78.05;96240.09;4941861;28;20154;-73
2021/07/19 06:09:43;;;;;;;12.75;7.72;;;21.10;72.90;;;19.05;77.38;96254.06;4954561;28;20031;-73
2021/07/19 06:12:10;;;;;;;11.60;7.68;;;21.30;72.50;;;19.13;77.31;96235.00;4919861;29;20420;-73
2021/07/19 06:14:37;;;;;;;13.23;6.90;;;21.40;70.90;;;19.35;76.96;96249.25;4949554;28;20117;-73
2021/07/19 06:17:03;;;;;;;18.45;6.68;;;21.60;70.80;;;19.52;76.67;96254.63;4936675;28;20126;-70
2021/07/19 06:19:29;;;;;;;12.75;6.57;;;21.80;70.20;;;19.65;76.75;96248.19;4919827;29;20042;-73
2021/07/19 06:21:55;;;;;;;10.77;6.97;;;22.10;69.80;;;19.84;75.63;96253.03;4919266;29;20042;-72
2021/07/19 06:24:21;;;;;;;11.13;6.60;;;22.30;68.60;;;20.03;74.89;96248.25;4963413;28;20054;-72
2021/07/19 06:26:47;;;;;;;10.90;6.20;;;22.60;67.80;;;20.23;74.58;96249.59;4953870;28;20047;-67
2021/07/19 06:29:12;;;;;;;9.38;7.13;;;22.80;67.00;;;20.46;74.30;96252.09;4928149;28;20039;-73
2021/07/19 06:31:38;;;;;;;10.07;5.72;;;23.20;65.40;;;20.67;74.33;96255.84;4919582;29;20079;-70
2021/07/19 06:34:04;;;;;;;13.63;6.10;;;23.50;64.70;;;20.86;74.03;96259.81;4942560;28;20655;-70
2021/07/19 06:36:30;;;;;;;10.68;6.13;;;23.60;63.70;;;21.07;72.68;96255.50;4962775;28;20419;-73
2021/07/19 06:38:56;;;;;;;8.65;6.15;;;23.70;63.00;;;21.28;72.98;96243.97;4946893;28;20027;-73
2021/07/19 06:41:21;;;;;;;7.43;5.43;;;23.90;63.20;;;21.47;71.67;96249.75;4948203;28;20106;-71
2021/07/19 06:43:47;;;;;;;9.77;5.38;;;24.10;62.20;;;21.61;71.55;96248.28;4945284;28;20050;-75
2021/07/19 06:46:13;;;;;;;8.93;5.75;;;24.20;61.50;;;21.81;70.68;96255.69;4936280;28;20113;-73
2021/07/19 06:48:38;;;;;;;7.50;5.60;;;24.40;61.20;;;21.96;70.32;96257.69;4953762;28;20182;-73
2021/07/19 06:51:04;;;;;;;7.47;5.22;;;24.50;60.50;;;22.07;69.19;96248.66;4953350;28;20125;-75
2021/07/19 06:53:30;;;;;;;7.63;5.55;;;24.60;60.50;;;22.20;69.04;96248.22;4934080;28;20040;-71
2021/07/19 06:55:56;;;;;;;7.57;4.93;;;24.70;60.60;;;22.31;68.94;96246.41;4958807;28;20046;-74
2021/07/19 06:58:22;;;;;;;10.48;5.45;;;24.90;60.30;;;22.41;68.40;96237.63;4937160;28;20062;-72
2021/07/19 07:00:50;;;;;;;6.80;4.80;;;24.90;59.30;;;22.51;66.92;96251.88;4927013;29;20107;-74
2021/07/19 07:03:15;;;;;;;12.52;5.03;;;25.00;59.20;;;22.62;67.19;96247.34;4942598;28;20047;-68
2021/07/19 07:05:41;;;;;;;12.93;5.28;;;25.20;58.30;;;22.72;66.67;96246.59;4938470;28;20189;-69
2021/07/19 07:08:07;;;;;;;10.57;5.70;;;25.30;57.30;;;22.81;66.85;96243.19;4961029;28;20113;-70
2021/07/19 07:10:33;;;;;;;8.18;5.10;;;25.50;57.80;;;22.91;66.52;96237.06;4970680;28;20039;-70
2021/07/19 07:12:58;;;;;;;6.68;4.68;;;25.60;58.00;;;23.00;66.12;96240.03;4933572;28;20462;-70
2021/07/19 07:15:24;;;;;;;7.38;4.55;;;25.80;56.70;;;23.11;65.50;96237.13;4950108;28;20115;-69
2021/07/19 07:17:50;;;;;;;6.80;4.20;;;26.00;56.60;;;23.19;65.54;96236.59;4938200;28;20446;-68
2021/07/19 07:20:16;;;;;;;11.73;4.22;;;26.10;55.10;;;23.30;65.60;96228.53;4953368;28;20039;-69
2021/07/19 07:22:42;;;;;;;5.97;3.63;;;26.20;56.40;;;23.43;65.32;96236.09;4933315;29;20031;-69
2021/07/19 07:25:09;;;;;;;5.78;4.05;;;26.30;55.60;;;23.53;64.98;96228.84;4917747;28;20039;-69
2021/07/19 07:27:35;;;;;;;5.70;3.90;;;26.40;55.20;;;23.67;64.79;96228.34;4933692;29;20503;-69
2021/07/19 07:30:03;;;;;;;8.60;4.80;;;26.50;56.40;;;23.77;64.36;96223.00;4933712;29;20063;-70
2021/07/19 07:32:29;;;;;;;6.88;4.20;;;26.60;54.80;;;23.90;63.45;96225.13;4935755;28;20122;-70
2021/07/19 07:34:54;;;;;;;5.60;3.95;;;26.70;54.50;;;24.03;64.50;96227.25;4952560;28;20162;-70
2021/07/19 07:37:20;;;;;;;5.40;3.97;;;27.00;54.60;;;24.14;63.88;96231.53;4977208;28;20030;-70
2021/07/19 07:39:46;;;;;;;6.00;4.20;;;27.10;53.40;;;24.27;62.77;96230.19;4964004;28;20034;-69
2021/07/19 07:42:12;;;;;;;5.10;3.50;;;27.30;53.30;;;24.40;62.99;96236.88;4968796;28;20038;-70
2021/07/19 07:44:38;;;;;;;6.97;4.00;;;27.40;52.90;;;24.50;62.50;96236.88;4937021;28;20609;-70
2021/07/19 07:47:04;;;;;;;5.75;3.90;;;27.50;52.10;;;24.61;61.74;96233.06;4951884;28;20446;-69
2021/07/19 07:49:30;;;;;;;5.28;3.78;;;27.80;51.50;;;24.75;61.85;96238.66;4952905;28;20027;-70
2021/07/19 07:51:58;;;;;;;12.80;5.72;;;28.00;51.00;;;24.86;60.76;96229.44;4952806;28;20031;-70
2021/07/19 07:54:24;;;;;;;5.25;3.35;;;27.90;49.60;;;24.97;60.22;96235.59;4952316;28;20129;-70
2021/07/19 07:56:50;;;;;;;5.43;3.95;;;28.10;50.30;;;25.11;60.01;96235.81;4968298;28;20046;-70
2021/07/19 07:59:15;;;;;;;3.85;3.38;;;28.40;48.80;;;25.24;59.53;96227.94;4952226;28;20411;-70
2021/07/19 08:01:41;;;;;;;5.60;3.45;;;28.60;48.70;;;25.39;58.79;96234.31;4952909;28;20577;-70
2021/07/19 08:04:07;;;;;;;4.97;3.30;;;28.70;47.80;;;25.53;58.81;96230.69;4924545;29;20063;-69
2021/07/19 08:06:33;;;;;;;5.82;3.28;;;28.80;46.50;;;25.69;58.30;96225.22;4929106;28;20411;-71
2021/07/19 08:08:58;;;;;;;5.15;2.97;;;29.00;46.80;;;25.86;58.14;96228.34;4937260;28;20066;-76
2021/07/19 08:11:26;;;;;;;4.93;3.00;;;29.10;47.10;;;26.02;57.34;96229.78;4970228;28;20027;-66
2021/07/19 08:13:52;;;;;;;7.15;3.20;;;29.30;46.90;;;26.16;57.61;96230.72;4936020;28;20039;-69
2021/07/19 08:16:18;;;;;;;6.75;3.08;;;29.40;47.40;;;26.32;56.97;96219.81;4964864;28;20034;-68
2021/07/19 08:18:43;;;;;;;4.05;2.95;;;29.50;47.00;;;26.45;56.21;96230.72;4938661;28;20126;-67
2021/07/19 08:21:09;;;;;;;4.95;2.47;;;29.70;45.00;;;26.62;56.60;96222.19;4957821;28;20027;-67
2021/07/19 08:23:35;;;;;;;4.28;2.50;;;30.00;45.20;;;26.80;55.58;96216.03;4918213;28;20038;-67
2021/07/19 08:26:01;;;;;;;5.15;2.80;;;30.10;44.10;;;26.97;54.63;96217.44;4917191;29;20039;-68
2021/07/19 08:28:27;;;;;;;4.30;2.60;;;30.30;44.30;;;27.14;55.00;96217.75;4956307;28;20066;-67
2021/07/19 08:30:52;;;;;;;3.83;2.80;;;30.60;44.10;;;27.30;54.53;96216.44;4969263;28;20145;-68
2021/07/19 08:33:18;;;;;;;5.75;2.78;;;30.60;42.80;;;27.46;53.65;96217.84;4968839;28;20523;-68
2021/07/19 08:35:45;;;;;;;5.57;2.40;;;30.90;42.20;;;27.68;53.73;96208.34;4933907;28;20493;-68
2021/07/19 08:38:11;;;;;;;3.28;2.20;;;31.10;42.10;;;27.80;52.06;96216.78;4962293;28;20034;-69
2021/07/19 08:40:37;;;;;;;8.50;3.00;;;31.10;41.40;;;27.92;51.37;96206.31;4977190;28;20377;-69
2021/07/19 08:43:04;;;;;;;4.53;2.85;;;31.30;39.80;;;28.03;50.62;96207.72;4951967;28;20125;-70
2021/07/19 08:45:30;;;;;;;6.38;2.88;;;31.30;39.50;;;28.13;50.18;96205.97;4949280;28;20046;-69
2021/07/19 08:47:56;;;;;;;5.25;3.00;;;31.40;38.40;;;28.20;49.97;96203.66;4955480;28;20079;-71
2021/07/19 08:50:22;;;;;;;4.63;2.40;;;31.10;38.90;;;28.13;49.19;96203.25;4957500;28;20073;-70
2021/07/19 08:52:50;;;;;;;4.10;2.30;;;30.50;40.80;;;27.90;48.85;96207.72;4954591;28;20047;-69
2021/07/19 08:55:16;;;;;;;3.00;2.50;;;30.10;42.00;;;27.71;49.69;96208.56;4930215;28;20105;-67
2021/07/19 08:57:44;;;;;;;5.20;2.85;;;29.70;42.00;;;27.61;49.24;96199.75;4945144;29;20035;-68
2021/07/19 09:00:10;;;;;;;6.20;2.53;;;29.80;42.50;;;27.66;49.58;96202.44;4936276;29;20652;-67
2021/07/19 09:02:37;;;;;;;6.18;2.70;;;30.20;43.00;;;27.81;49.07;96198.66;4952860;28;20123;-67
2021/07/19 09:05:03;;;;;;;5.38;2.95;;;30.40;41.10;;;27.96;48.69;96204.63;4942832;28;20039;-68
2021/07/19 09:07:30;;;;;;;7.10;2.88;;;30.90;41.60;;;28.13;49.31;96190.53;4972993;28;20035;-68
2021/07/19 09:09:56;;;;;;;6.57;2.55;;;31.30;40.70;;;28.39;49.34;96193.59;4961605;28;20568;-68
2021/07/19 09:12:39;;;;;;;42.88;31.52;;;31.60;41.60;;;28.73;46.08;96193.16;4939164;29;20035;-68
2021/07/19 09:15:09;;;;;;;5.80;4.53;;;31.90;39.20;;;28.99;47.02;96196.19;4951677;28;20051;-69
2021/07/19 09:17:35;;;;;;;5.57;2.80;;;32.30;39.70;;;29.30;47.88;96195.50;4952174;28;20063;-69
2021/07/19 09:20:01;;;;;;;4.03;2.60;;;32.50;39.00;;;29.39;47.51;96194.44;4935857;29;20035;-70
2021/07/19 09:22:29;;;;;;;3.60;2.25;;;32.10;38.90;;;29.35;46.47;96198.09;4965296;28;20043;-69
2021/07/19 09:25:05;;;;;;;3.92;2.65;;;31.80;38.90;;;29.15;44.39;96188.50;4939216;28;20034;-69
2021/07/19 09:27:31;;;;;;;3.70;2.20;;;31.10;39.70;;;29.00;46.54;96184.25;4941124;29;20062;-68
2021/07/19 09:29:57;;;;;;;3.97;2.00;;;31.40;39.70;;;29.07;46.68;96186.53;4935427;29;20031;-69
2021/07/19 09:32:23;;;;;;;4.25;2.67;;;31.80;39.30;;;29.27;45.93;96192.31;4929017;28;20038;-69
2021/07/19 09:34:49;;;;;;;3.72;2.15;;;32.20;38.20;;;29.51;45.96;96183.91;4939721;28;20046;-69
2021/07/19 09:37:15;;;;;;;3.78;2.30;;;32.50;37.80;;;29.79;45.72;96186.47;4949627;28;20117;-68
2021/07/19 09:39:52;;;;;;;6.20;2.20;;;33.00;37.80;;;29.95;43.17;96184.19;4960587;28;20123;-70
2021/07/19 09:42:20;;;;;;;5.28;2.53;;;32.80;37.40;;;30.13;44.22;96188.63;4949309;28;20028;-68
2021/07/19 09:44:59;;;;;;;5.05;2.20;;;33.40;36.60;;;30.45;43.38;96174.72;4920242;29;20045;-68
2021/07/19 09:47:35;;;;;;;2.65;2.22;;;33.90;36.70;;;30.79;42.83;96175.97;4938638;28;20074;-71
2021/07/19 09:50:11;;;;;;;3.30;2.10;;;34.30;35.80;;;31.13;43.17;96168.97;4954925;28;20039;-73
2021/07/19 09:52:37;;;;;;;5.75;2.20;;;34.60;35.70;;;31.49;43.40;96174.13;4953621;28;20043;-74
2021/07/19 09:55:04;;;;;;;3.40;2.00;;;35.00;34.70;;;31.74;42.90;96162.44;4941815;28;20062;-70
2021/07/19 09:57:29;;;;;;;2.55;1.92;;;35.00;33.60;;;31.67;41.99;96173.78;4957200;28;20126;-71
2021/07/19 09:59:57;;;;;;;5.40;2.10;;;34.30;34.00;;;31.48;41.76;96170.63;4956942;28;20039;-69
2021/07/19 10:02:42;;;;;;;3.90;2.30;;;33.80;35.10;;;31.27;40.15;96175.09;4937657;28;20115;-67
2021/07/19 10:05:10;;;;;;;6.57;2.22;;;33.70;35.30;;;31.37;39.85;96169.31;4938405;28;20126;-68
2021/07/19 10:07:46;;;;;;;4.72;2.00;;;34.20;34.10;;;31.53;39.76;96170.44;4934854;28;20053;-69
2021/07/19 10:10:12;;;;;;;3.55;1.98;;;34.80;33.80;;;31.87;41.33;96161.44;4954460;28;20134;-70
2021/07/19 10:12:37;;;;;;;6.03;2.08;;;35.50;31.50;;;32.18;40.46;96155.78;4954157;28;20035;-71
2021/07/19 10:15:05;;;;;;;3.72;2.00;;;35.40;32.00;;;32.46;39.48;96155.34;4938279;28;20043;-69